Aérodrome :
LOGIN :

S'inscrire | Disclaimer

   EN    FR    IT 

 










Légende :    VFR   VFR Marginal   IFR   IFR Intensif   IFR Très Intensif
Visi : 
Plafond : 
>= 8 km
>= 3000ft
5 à 8 km
1000 à 3000 ft
1500m à 5 km
500 à 1000 ft
800 à 1500m
200 à 500 ft
< 800m
< 200 ft
Symboles :   Orages  Brouillard  Fortes neiges  Fortes précipitations  Vent > 20 kt
SIGMETs :   Divers  Orages  Givrage  Turbulence  Onde Orograph.  Cendres Volcan.






- Altitude de l'aérodrome : 1036 ft
- Code IATA : CLJ


LRCL - Cluj-Napoca International

DERNIER METAR :
  • 171530Z 12003KT CAVOK 09/M01 Q1021

METARs EXPIRÉS :
  • 171500Z 13003KT 090V150 CAVOK 10/M00 Q1021
  • 171430Z 13005KT 100V160 CAVOK 11/M01 Q1022
  • 171400Z 10005KT 070V140 CAVOK 11/M00 Q1022
  • 171330Z 08005KT 050V110 CAVOK 10/M01 Q1023
  • 171300Z 08004KT 020V130 CAVOK 10/M00 Q1023

TAF TAF LRCL
Valide du 17 à 15h jusqu'au 18 à 00h UTC


171400Z 1715/1724 VRB04KT CAVOK
TEMPO 1720/1722 5000 BR
TEMPO 1722/1724 3000 BR



MET'MAP, la Météo Aéronautique d'un coup d'oeil ! - Copyright ORBIFLY Décembre 2007 - Disclaimer

ORBIFLY MET'MAP TEAM :

Programmation & Développement : Alexandra Zaïnal
Sur une idée originale de : Baudouin d'Aumeries
Assistance à la programmation : Marc-Olivier Méhu
Soutien technique & logistique : Manuel Goepfert

Contact : metmap@orbifly.com




SOURCES & CREDITS :

   NOAA